Time;durP1;ratioP1;P1;durP2;ratioP2;P2;SDS_P1;SDS_P2;PMS_P1;PMS_P2;Temp;Humidity;BMP_temperature;BMP_pressure;BME280_temperature;BME280_humidity;BME280_pressure;Samples;Min_cycle;Max_cycle;Signal;HPM_P1;HPM_P2
2022/10/06 00:02:11;;;;;;;8.30;5.85;;;;;;;12.90;79.86;100500.98;1712271;83;21148;-72
2022/10/06 00:04:38;;;;;;;8.73;6.08;;;;;;;12.91;80.05;100495.88;1700884;83;21075;-73
2022/10/06 00:07:05;;;;;;;10.53;5.53;;;;;;;12.93;80.17;100499.70;1691575;83;21204;-71
2022/10/06 00:09:31;;;;;;;10.08;6.30;;;;;;;12.95;80.14;100489.48;1687322;83;21042;-71
2022/10/06 00:11:59;;;;;;;12.55;5.70;;;;;;;12.95;80.11;100497.02;1698511;83;20990;-72
2022/10/06 00:14:26;;;;;;;7.70;5.53;;;;;;;12.95;80.13;100497.58;1693794;83;21048;-72
2022/10/06 00:16:52;;;;;;;6.47;5.10;;;;;;;12.92;80.12;100500.22;1686728;83;21557;-75
2022/10/06 00:19:20;;;;;;;16.32;6.25;;;;;;;12.88;80.21;100492.86;1693900;83;21241;-74
2022/10/06 00:21:47;;;;;;;9.95;6.62;;;;;;;12.84;80.36;100494.42;1711068;83;21081;-75
2022/10/06 00:24:14;;;;;;;12.75;5.60;;;;;;;12.81;80.49;100488.95;1697965;82;21494;-69
2022/10/06 00:26:42;;;;;;;8.78;6.22;;;;;;;12.79;80.69;100490.28;1679917;85;21282;-72
2022/10/06 00:29:08;;;;;;;7.85;5.92;;;;;;;12.79;80.82;100491.63;1682878;85;21099;-71
2022/10/06 00:31:36;;;;;;;10.78;6.15;;;;;;;12.82;80.95;100495.18;1710957;83;21254;-69
2022/10/06 00:34:03;;;;;;;12.50;5.72;;;;;;;12.85;80.90;100496.06;1702011;83;21029;-74
2022/10/06 00:36:31;;;;;;;9.43;6.03;;;;;;;12.87;80.78;100493.91;1694554;83;21101;-71
2022/10/06 00:38:59;;;;;;;9.18;6.60;;;;;;;12.86;80.70;100499.02;1696382;83;21539;-70
2022/10/06 00:41:27;;;;;;;9.63;5.47;;;;;;;12.83;80.65;100492.25;1681905;84;20968;-79
2022/10/06 00:43:58;;;;;;;8.03;5.87;;;;;;;12.80;80.79;100495.97;1680016;84;21240;-78
2022/10/06 00:46:45;;;;;;;7.10;4.90;;;;;;;12.79;80.86;100490.28;1694703;84;21131;-79
2022/10/06 00:49:19;;;;;;;9.90;5.42;;;;;;;12.75;81.03;100484.56;1698046;84;21089;-77
2022/10/06 00:51:50;;;;;;;8.13;5.80;;;;;;;12.76;81.12;100482.13;1687194;84;21533;-75
2022/10/06 00:54:18;;;;;;;11.10;5.70;;;;;;;12.78;81.12;100485.41;1684281;84;20997;-78
2022/10/06 00:56:45;;;;;;;10.60;5.95;;;;;;;12.82;81.11;100479.80;1680161;85;21157;-79
2022/10/06 00:59:14;;;;;;;7.03;5.15;;;;;;;12.80;81.02;100476.55;1680666;85;20970;-80
2022/10/06 01:01:49;;;;;;;8.95;5.50;;;;;;;12.79;81.03;100478.95;1680430;85;21555;-79
2022/10/06 01:04:16;;;;;;;7.45;4.97;;;;;;;12.79;81.06;100476.78;1670119;85;21506;-78
2022/10/06 01:06:50;;;;;;;10.13;5.75;;;;;;;12.77;81.11;100474.31;1679359;85;21229;-74
2022/10/06 01:09:17;;;;;;;5.90;5.20;;;;;;;12.74;81.14;100476.17;1680446;85;21153;-77
2022/10/06 01:11:47;;;;;;;6.33;5.00;;;;;;;12.70;81.11;100480.42;1679989;85;20986;-73
2022/10/06 01:14:14;;;;;;;7.17;4.40;;;;;;;12.67;81.21;100482.24;1668470;84;21028;-75
2022/10/06 01:16:42;;;;;;;9.75;6.20;;;;;;;12.65;81.33;100472.24;1684669;84;20987;-73
2022/10/06 01:19:16;;;;;;;6.37;5.08;;;;;;;12.66;81.35;100477.94;1680032;84;20993;-74
2022/10/06 01:21:46;;;;;;;7.80;4.75;;;;;;;12.68;81.35;100467.69;1705192;84;21269;-74
2022/10/06 01:24:13;;;;;;;6.40;5.42;;;;;;;12.67;81.36;100462.82;1686597;84;21076;-74
2022/10/06 01:26:41;;;;;;;7.90;5.30;;;;;;;12.63;81.35;100468.42;1680209;85;21030;-74
2022/10/06 01:29:09;;;;;;;9.45;5.95;;;;;;;12.61;81.40;100466.48;1680279;85;21062;-71
2022/10/06 01:31:36;;;;;;;11.22;6.00;;;;;;;12.59;81.44;100466.46;1690948;84;21030;-75
2022/10/06 01:34:04;;;;;;;7.72;5.60;;;;;;;12.55;81.61;100467.48;1688615;84;21374;-74
2022/10/06 01:36:32;;;;;;;6.22;5.62;;;;;;;12.52;81.69;100467.95;1702049;84;20985;-77
2022/10/06 01:38:58;;;;;;;9.55;6.33;;;;;;;12.52;81.85;100465.78;1708793;84;21008;-75
2022/10/06 01:41:26;;;;;;;6.05;4.58;;;;;;;12.53;81.93;100466.08;1678114;84;20982;-77
2022/10/06 01:43:54;;;;;;;6.58;5.78;;;;;;;12.54;82.00;100465.84;1667080;85;21023;-74
2022/10/06 01:46:22;;;;;;;6.92;5.53;;;;;;;12.61;82.03;100458.95;1667363;85;21040;-75
2022/10/06 01:48:49;;;;;;;8.40;5.45;;;;;;;12.63;81.85;100467.08;1671774;85;21083;-76
2022/10/06 01:51:16;;;;;;;11.35;8.13;;;;;;;12.64;81.72;100471.95;1672974;85;21090;-76
2022/10/06 01:53:42;;;;;;;7.37;5.58;;;;;;;12.62;81.75;100468.66;1672363;85;21040;-74
2022/10/06 01:56:09;;;;;;;9.40;5.90;;;;;;;12.61;81.68;100467.05;1687813;84;21088;-77
2022/10/06 01:58:36;;;;;;;7.72;5.80;;;;;;;12.57;81.75;100464.52;1700593;84;21131;-77
2022/10/06 02:01:07;;;;;;;7.28;5.20;;;;;;;12.52;81.87;100459.04;1701436;84;20992;-76
2022/10/06 02:03:35;;;;;;;8.35;5.70;;;;;;;12.44;82.12;100458.92;1665307;85;21048;-78
2022/10/06 02:06:03;;;;;;;9.18;5.72;;;;;;;12.38;82.51;100453.66;1627232;85;20959;-76
2022/10/06 02:08:31;;;;;;;9.75;5.03;;;;;;;12.33;82.84;100458.97;1649626;85;21047;-75
2022/10/06 02:11:08;;;;;;;7.37;5.50;;;;;;;12.28;83.12;100463.73;1650127;85;21146;-74
2022/10/06 02:13:37;;;;;;;12.58;6.10;;;;;;;12.22;83.35;100468.25;1671427;85;20957;-74
2022/10/06 02:16:06;;;;;;;10.88;5.50;;;;;;;12.18;83.61;100456.84;1684853;84;20985;-76
2022/10/06 02:18:34;;;;;;;6.22;5.12;;;;;;;12.11;83.92;100456.16;1700750;84;21047;-76
2022/10/06 02:21:01;;;;;;;8.20;5.47;;;;;;;12.04;84.25;100463.55;1701390;84;21682;-75
2022/10/06 02:23:29;;;;;;;6.95;5.70;;;;;;;11.98;84.56;100465.36;1691977;84;22330;-75
2022/10/06 02:26:00;;;;;;;7.55;4.65;;;;;;;11.95;84.88;100461.77;1671702;85;21112;-78
2022/10/06 02:28:27;;;;;;;14.15;6.05;;;;;;;11.95;85.15;100455.03;1690637;84;21517;-76
2022/10/06 02:31:00;;;;;;;7.08;5.65;;;;;;;11.97;85.29;100462.89;1701023;84;20965;-76
2022/10/06 02:33:27;;;;;;;10.18;5.50;;;;;;;11.97;85.29;100462.36;1694171;84;21076;-74
2022/10/06 02:35:56;;;;;;;8.95;5.20;;;;;;;11.98;85.35;100464.53;1672129;85;21107;-78
2022/10/06 02:38:23;;;;;;;11.00;5.00;;;;;;;11.96;85.40;100458.02;1672767;85;21594;-74
2022/10/06 02:40:50;;;;;;;8.50;5.30;;;;;;;11.94;85.40;100466.87;1623828;85;21047;-73
2022/10/06 02:43:19;;;;;;;11.73;5.53;;;;;;;11.92;85.45;100464.95;1679236;82;21137;-78
2022/10/06 02:45:56;;;;;;;7.20;4.70;;;;;;;11.89;85.49;100468.67;1713058;82;21554;-80
2022/10/06 02:48:24;;;;;;;8.80;4.60;;;;;;;11.87;85.59;100467.55;1731020;82;21115;-76
2022/10/06 02:50:56;;;;;;;6.58;4.92;;;;;;;11.85;85.73;100461.56;1730974;82;21582;-76
2022/10/06 02:53:27;;;;;;;11.22;5.22;;;;;;;11.85;85.91;100465.61;1699585;82;21036;-76
2022/10/06 02:56:08;;;;;;;12.78;6.53;;;;;;;11.86;86.03;100474.00;1714489;82;21613;-76
2022/10/06 02:58:34;;;;;;;6.65;5.05;;;;;;;11.88;86.05;100475.94;1721561;82;21053;-76
2022/10/06 03:01:04;;;;;;;11.95;5.30;;;;;;;11.90;85.96;100472.98;1701576;83;21048;-76
2022/10/06 03:03:33;;;;;;;7.10;5.15;;;;;;;11.90;85.76;100466.23;1675375;84;21041;-75
2022/10/06 03:06:24;;;;;;;9.38;5.75;;;;;;;11.86;85.73;100472.64;1701920;84;21629;-74
2022/10/06 03:09:01;;;;;;;9.80;5.30;;;;;;;11.82;85.69;100460.70;1700420;84;21129;-75
2022/10/06 03:11:35;;;;;;;11.83;6.30;;;;;;;11.77;85.76;100463.30;1700656;83;21530;-75
2022/10/06 03:14:02;;;;;;;9.13;6.50;;;;;;;11.73;85.95;100463.48;1701096;83;21101;-77
2022/10/06 03:16:40;;;;;;;10.93;8.23;;;;;;;11.72;86.11;100464.02;1701702;84;21277;-75
2022/10/06 03:19:08;;;;;;;14.28;6.70;;;;;;;11.74;86.19;100462.44;1701473;84;21538;-77
2022/10/06 03:21:40;;;;;;;6.95;6.08;;;;;;;11.75;86.22;100456.79;1700580;83;21094;-76
2022/10/06 03:24:08;;;;;;;10.05;6.70;;;;;;;11.75;86.20;100455.44;1699942;83;21065;-75
2022/10/06 03:26:39;;;;;;;7.72;5.65;;;;;;;11.72;86.26;100459.12;1701727;84;21661;-75
2022/10/06 03:29:06;;;;;;;9.10;5.25;;;;;;;11.70;86.25;100453.95;1702128;84;21105;-74
2022/10/06 03:31:33;;;;;;;9.53;6.05;;;;;;;11.68;86.25;100456.09;1701093;84;20997;-74
2022/10/06 03:33:59;;;;;;;7.87;4.90;;;;;;;11.66;86.31;100448.76;1711951;83;25919;-74
2022/10/06 03:36:31;;;;;;;10.68;5.90;;;;;;;11.65;86.40;100448.50;1713898;83;21070;-76
2022/10/06 03:38:58;;;;;;;10.25;5.78;;;;;;;11.66;86.46;100450.11;1708926;84;21047;-75
2022/10/06 03:41:27;;;;;;;9.48;6.05;;;;;;;11.68;86.53;100449.36;1714025;83;21008;-75
2022/10/06 03:43:55;;;;;;;6.67;5.05;;;;;;;11.68;86.48;100452.58;1724821;83;21541;-75
2022/10/06 03:46:26;;;;;;;8.13;5.70;;;;;;;11.66;86.49;100460.88;1743310;81;20988;-77
2022/10/06 03:48:54;;;;;;;7.42;5.37;;;;;;;11.65;86.53;100462.49;1756693;81;21110;-75
2022/10/06 03:51:24;;;;;;;10.63;5.85;;;;;;;11.64;86.52;100464.89;1703006;83;21241;-76
2022/10/06 03:53:51;;;;;;;7.87;5.37;;;;;;;11.60;86.58;100465.90;1742599;81;20990;-79
2022/10/06 03:56:27;;;;;;;6.90;5.40;;;;;;;11.57;86.67;100465.01;1726403;83;20956;-76
2022/10/06 03:59:00;;;;;;;6.47;5.30;;;;;;;11.56;86.89;100470.66;1699982;83;21055;-77
2022/10/06 04:01:32;;;;;;;;;;;;;;;11.55;86.93;100464.45;1727859;83;21061;-76
2022/10/06 04:04:00;;;;;;;10.80;5.78;;;;;;;11.57;86.97;100461.49;1725455;83;20992;-78
2022/10/06 04:06:29;;;;;;;7.97;5.35;;;;;;;11.57;87.01;100466.88;1743880;81;21065;-75
2022/10/06 04:08:57;;;;;;;9.28;6.95;;;;;;;11.58;86.95;100469.34;1729024;81;21119;-76
2022/10/06 04:11:27;;;;;;;7.97;5.95;;;;;;;11.55;87.04;100466.31;1747570;81;21104;-74
2022/10/06 04:13:59;;;;;;;10.08;5.95;;;;;;;11.53;87.03;100469.77;1724888;83;21052;-78
2022/10/06 04:16:33;;;;;;;6.50;5.90;;;;;;;11.48;87.11;100475.04;1705038;83;21243;-76
2022/10/06 04:19:04;;;;;;;8.15;6.37;;;;;;;11.43;87.26;100474.41;1745898;81;21537;-76
2022/10/06 04:21:35;;;;;;;9.35;5.10;;;;;;;11.38;87.51;100479.16;1747393;81;21059;-74
2022/10/06 04:24:03;;;;;;;9.05;6.67;;;;;;;11.36;87.80;100478.59;1725623;83;21060;-77
2022/10/06 04:26:34;;;;;;;8.03;6.03;;;;;;;11.34;87.93;100476.64;1742736;81;21529;-76
2022/10/06 04:29:02;;;;;;;13.55;7.60;;;;;;;11.35;88.03;100480.16;1756435;81;21424;-74
2022/10/06 04:31:37;;;;;;;8.40;7.20;;;;;;;11.38;88.07;100479.16;1748565;81;21016;-76
2022/10/06 04:34:05;;;;;;;16.73;7.83;;;;;;;11.39;88.08;100477.28;1699293;83;21109;-76
2022/10/06 04:36:37;;;;;;;13.00;6.78;;;;;;;11.42;87.98;100485.41;1715416;83;21513;-77
2022/10/06 04:39:09;;;;;;;14.70;7.35;;;;;;;11.43;87.92;100488.39;1750080;81;20988;-77
2022/10/06 04:41:39;;;;;;;10.28;7.78;;;;;;;11.43;87.81;100484.36;1743646;81;21308;-76
2022/10/06 04:44:07;;;;;;;11.93;7.70;;;;;;;11.42;87.87;100480.02;1703836;83;21013;-78
2022/10/06 04:46:35;;;;;;;10.15;7.08;;;;;;;11.38;87.78;100483.19;1752415;81;20984;-78
2022/10/06 04:49:02;;;;;;;10.05;6.95;;;;;;;11.38;87.94;100480.50;1759891;81;20972;-78
2022/10/06 04:51:30;;;;;;;7.33;5.70;;;;;;;11.42;87.95;100481.36;1748017;81;21100;-77
2022/10/06 04:53:59;;;;;;;11.78;7.53;;;;;;;11.43;87.91;100486.52;1703573;83;21156;-78
2022/10/06 04:56:30;;;;;;;16.02;8.73;;;;;;;11.42;87.79;100487.57;1729409;83;21055;-75
2022/10/06 04:58:58;;;;;;;7.75;5.92;;;;;;;11.43;87.77;100485.17;1729499;81;21042;-77
2022/10/06 05:01:32;;;;;;;7.15;5.50;;;;;;;11.41;87.75;100485.96;1727945;83;21025;-75
2022/10/06 05:04:00;;;;;;;13.10;6.70;;;;;;;11.36;87.78;100482.62;1728110;83;21139;-74
2022/10/06 05:06:39;;;;;;;11.15;6.03;;;;;;;11.36;88.13;100483.15;1729616;82;20982;-75
2022/10/06 05:09:14;;;;;;;29.85;10.32;;;;;;;11.36;88.30;100481.28;1728618;83;20990;-74
2022/10/06 05:11:46;;;;;;;10.18;6.03;;;;;;;11.39;88.21;100488.05;1726626;82;21597;-75
2022/10/06 05:14:15;;;;;;;8.85;6.08;;;;;;;11.42;88.16;100489.44;1728355;82;22183;-79
2022/10/06 05:16:44;;;;;;;7.55;5.97;;;;;;;11.44;87.99;100488.69;1729435;82;21558;-74
2022/10/06 05:19:12;;;;;;;15.72;5.62;;;;;;;11.46;88.00;100487.42;1728180;83;21804;-74
2022/10/06 05:21:42;;;;;;;7.12;5.40;;;;;;;11.48;87.73;100493.38;1727737;81;21033;-77
2022/10/06 05:24:10;;;;;;;8.50;5.67;;;;;;;11.46;87.61;100488.77;1728215;82;21364;-73
2022/10/06 05:26:40;;;;;;;15.98;5.47;;;;;;;11.46;87.63;100487.42;1728083;83;20941;-73
2022/10/06 05:29:08;;;;;;;7.03;5.22;;;;;;;11.48;87.65;100488.51;1754465;81;21028;-72
2022/10/06 05:31:39;;;;;;;9.10;5.40;;;;;;;11.52;87.58;100482.94;1740342;81;21150;-74
2022/10/06 05:34:06;;;;;;;10.18;4.62;;;;;;;11.55;87.10;100483.83;1728568;82;21041;-74
2022/10/06 05:36:33;;;;;;;5.75;4.65;;;;;;;11.58;87.00;100492.77;1727830;83;21358;-74
2022/10/06 05:39:01;;;;;;;9.48;5.53;;;;;;;11.62;86.83;100491.24;1729191;83;21030;-74
2022/10/06 05:41:31;;;;;;;5.65;4.78;;;;;;;11.65;86.62;100498.34;1727792;83;21049;-73
2022/10/06 05:43:59;;;;;;;7.45;5.12;;;;;;;11.66;86.37;100492.40;1716777;82;21774;-73
2022/10/06 05:46:31;;;;;;;6.37;4.45;;;;;;;11.67;86.27;100488.66;1712218;83;21057;-71
2022/10/06 05:49:06;;;;;;;4.60;4.15;;;;;;;11.68;86.13;100496.52;1712321;83;20995;-73
2022/10/06 05:51:34;;;;;;;17.17;6.20;;;;;;;11.74;86.14;100493.44;1704255;83;21105;-74
2022/10/06 05:54:02;;;;;;;11.30;5.90;;;;;;;11.75;85.58;100491.00;1684852;83;21045;-76
2022/10/06 05:56:34;;;;;;;11.28;6.30;;;;;;;11.80;85.68;100497.84;1683238;85;21539;-74
2022/10/06 05:59:02;;;;;;;8.80;4.47;;;;;;;11.84;85.58;100497.69;1683241;85;20997;-75
2022/10/06 06:01:35;;;;;;;7.92;5.05;;;;;;;11.90;85.42;100499.94;1682490;85;20990;-76
2022/10/06 06:04:06;;;;;;;7.90;4.47;;;;;;;11.95;85.03;100506.78;1669464;83;21097;-79
2022/10/06 06:06:39;;;;;;;6.20;5.00;;;;;;;12.00;84.86;100506.36;1703723;83;21655;-76
2022/10/06 06:09:16;;;;;;;12.88;5.80;;;;;;;12.08;84.61;100501.13;1712221;83;21238;-78
2022/10/06 06:11:48;;;;;;;15.18;5.17;;;;;;;12.14;84.22;100513.11;1697575;83;21656;-76
2022/10/06 06:15:59;;;;;;;15.38;5.67;;;;;;;12.21;83.64;100517.03;1681879;83;20998;-76
2022/10/06 06:16:49;;;;;;;6.62;4.62;;;;;;;12.26;83.18;100514.43;1678268;85;21044;-75
2022/10/06 06:19:17;;;;;;;4.72;3.87;;;;;;;12.30;82.57;100514.23;1687882;83;21072;-72
2022/10/06 06:21:44;;;;;;;6.58;3.70;;;;;;;12.33;82.52;100523.19;1681514;83;21226;-73
2022/10/06 06:24:14;;;;;;;8.85;4.60;;;;;;;12.37;82.58;100513.57;1681645;83;20985;-78
2022/10/06 06:26:41;;;;;;;10.18;4.35;;;;;;;12.45;82.34;100532.59;1681597;85;20973;-72
2022/10/06 06:29:07;;;;;;;9.68;5.30;;;;;;;12.50;81.66;100525.41;1681816;85;21038;-73
2022/10/06 06:31:37;;;;;;;13.15;4.45;;;;;;;12.53;81.49;100527.61;1679984;85;21054;-75
2022/10/06 06:34:06;;;;;;;6.05;4.00;;;;;;;12.57;81.22;100522.55;1684394;83;21569;-73
2022/10/06 06:36:42;;;;;;;13.28;5.42;;;;;;;12.59;80.61;100525.30;1706430;83;21100;-74
2022/10/06 06:39:12;;;;;;;8.70;4.87;;;;;;;12.60;80.55;100531.00;1690307;83;21131;-76
2022/10/06 06:41:44;;;;;;;7.15;4.70;;;;;;;12.63;80.48;100520.23;1682058;85;21046;-77
2022/10/06 06:44:28;;;;;;;9.13;5.17;;;;;;;12.70;80.39;100518.73;1716148;81;21081;-75
2022/10/06 06:47:00;;;;;;;5.55;4.78;;;;;;;12.77;80.12;100520.73;1731515;81;21278;-73
2022/10/06 06:49:26;;;;;;;9.58;4.95;;;;;;;12.84;79.98;100513.31;1726368;83;20996;-74
2022/10/06 06:51:54;;;;;;;13.15;5.42;;;;;;;12.90;79.90;100521.80;1726040;83;21048;-73
2022/10/06 06:54:23;;;;;;;9.05;5.60;;;;;;;12.96;79.18;100515.39;1725994;83;21025;-76
2022/10/06 06:56:54;;;;;;;10.68;4.80;;;;;;;13.00;79.17;100516.00;1709174;83;21042;-73
2022/10/06 06:59:21;;;;;;;10.03;6.50;;;;;;;13.05;78.99;100513.39;1709525;83;21257;-73
2022/10/06 07:01:50;;;;;;;14.23;5.55;;;;;;;13.12;78.75;100513.80;1725037;83;20958;-72
2022/10/06 07:04:19;;;;;;;9.95;5.03;;;;;;;13.19;78.34;100521.22;1727127;81;21036;-73
2022/10/06 07:06:57;;;;;;;13.00;4.95;;;;;;;13.26;77.73;100515.09;1711049;83;21054;-73
2022/10/06 07:09:27;;;;;;;7.33;6.17;;;;;;;13.33;77.45;100520.59;1727726;81;21007;-71
2022/10/06 07:11:57;;;;;;;9.28;5.62;;;;;;;13.41;76.81;100519.38;1709698;83;21368;-73
2022/10/06 07:14:24;;;;;;;8.70;5.37;;;;;;;13.43;76.09;100514.53;1710762;83;21000;-72
2022/10/06 07:25:24;;;;;;;7.00;4.55;;;;;;;13.54;75.04;100520.38;1721731;82;21245;-75
2022/10/06 07:27:52;;;;;;;5.08;4.55;;;;;;;13.60;74.95;100523.97;1702047;82;21551;-76
2022/10/06 07:30:26;;;;;;;10.88;4.87;;;;;;;13.66;74.67;100513.52;1706291;83;20988;-75
2022/10/06 07:32:55;;;;;;;8.10;4.67;;;;;;;13.72;74.45;100517.91;1707252;83;21104;-76
2022/10/06 07:35:23;;;;;;;11.78;4.62;;;;;;;13.78;74.38;100512.33;1737457;81;21044;-79
2022/10/06 07:37:52;;;;;;;10.43;5.37;;;;;;;13.84;74.16;100507.27;1741705;82;21102;-78
2022/10/06 07:40:19;;;;;;;11.75;4.95;;;;;;;13.92;74.25;100508.17;1732933;82;22289;-75
2022/10/06 07:42:47;;;;;;;11.88;5.10;;;;;;;14.01;74.10;100509.90;1712022;83;21043;-74
2022/10/06 07:45:44;;;;;;;8.78;4.70;;;;;;;14.06;73.43;100511.31;1729959;82;21192;-74
2022/10/06 07:48:14;;;;;;;7.45;4.92;;;;;;;14.13;73.02;100519.25;1741367;82;21052;-73
2022/10/06 07:50:44;;;;;;;7.17;4.92;;;;;;;14.18;72.75;100509.84;1710132;83;21152;-73
2022/10/06 07:53:11;;;;;;;8.23;4.75;;;;;;;14.24;72.91;100506.13;1710678;83;21869;-79
2022/10/06 07:55:43;;;;;;;5.10;4.30;;;;;;;14.30;72.91;100503.73;1711394;83;21064;-78
2022/10/06 07:58:16;;;;;;;12.05;5.50;;;;;;;14.36;72.42;100499.52;1709646;82;21032;-80
2022/10/06 08:00:43;;;;;;;20.57;5.08;;;;;;;14.45;71.37;100512.59;1718075;82;21116;-82
2022/10/06 08:03:13;;;;;;;11.45;4.28;;;;;;;14.53;71.18;100501.32;1711042;83;21105;-78
2022/10/06 08:05:39;;;;;;;6.58;5.70;;;;;;;14.62;71.01;100503.84;1711077;83;21012;-78
2022/10/06 08:08:07;;;;;;;7.95;4.50;;;;;;;14.71;70.56;100504.47;1715010;82;21027;-78
2022/10/06 08:10:34;;;;;;;6.15;4.62;;;;;;;14.78;70.44;100494.77;1733166;81;21569;-77
2022/10/06 08:13:06;;;;;;;10.08;5.62;;;;;;;14.86;70.38;100496.20;1740172;82;21060;-74
2022/10/06 08:15:34;;;;;;;13.83;5.40;;;;;;;14.93;70.20;100506.27;1726369;82;21853;-77
2022/10/06 08:18:02;;;;;;;12.73;6.05;;;;;;;14.98;69.73;100503.06;1711977;83;21622;-75
2022/10/06 08:20:29;;;;;;;9.20;5.12;;;;;;;15.03;69.30;100499.58;1711296;82;21551;-77
2022/10/06 08:22:55;;;;;;;7.42;4.85;;;;;;;15.09;69.29;100500.72;1709455;83;21123;-78
2022/10/06 08:25:22;;;;;;;6.53;4.15;;;;;;;15.16;69.08;100489.64;1716832;82;21027;-75
2022/10/06 08:27:49;;;;;;;7.92;4.42;;;;;;;15.24;69.05;100494.59;1741797;82;21634;-76
2022/10/06 08:30:15;;;;;;;7.85;4.75;;;;;;;15.32;68.28;100491.92;1721916;82;21027;-75
2022/10/06 08:32:42;;;;;;;12.15;5.92;;;;;;;15.38;68.35;100494.42;1711026;83;21068;-75
2022/10/06 08:35:09;;;;;;;9.73;6.20;;;;;;;15.46;67.90;100484.42;1710788;83;21580;-76
2022/10/06 08:37:36;;;;;;;9.35;5.83;;;;;;;15.52;67.40;100481.24;1712146;83;21063;-77
2022/10/06 08:40:06;;;;;;;11.10;6.70;;;;;;;15.56;67.20;100478.28;1712150;83;21049;-76
2022/10/06 08:42:47;;;;;;;11.80;6.85;;;;;;;15.61;67.16;100476.41;1711223;83;21012;-76
2022/10/06 08:45:23;;;;;;;10.23;6.47;;;;;;;15.66;66.92;100478.33;1710502;83;21099;-78
2022/10/06 08:48:12;;;;;;;10.55;6.65;;;;;;;15.73;66.55;100478.89;1710490;83;21137;-75
2022/10/06 08:51:05;;;;;;;10.43;6.17;;;;;;;15.78;65.97;100474.84;1710457;83;21541;-74
2022/10/06 08:54:08;;;;;;;8.48;5.47;;;;;;;15.84;65.39;100471.63;1684232;83;21740;-76
2022/10/06 08:56:47;;;;;;;6.62;4.87;;;;;;;15.88;65.41;100474.89;1710501;83;21008;-73
2022/10/06 08:59:22;;;;;;;9.95;5.78;;;;;;;15.96;65.48;100473.05;1710513;83;20984;-74
2022/10/06 09:01:50;;;;;;;5.78;4.40;;;;;;;16.03;64.68;100484.45;1711507;83;21061;-76
2022/10/06 09:04:30;;;;;;;11.53;6.90;;;;;;;16.07;64.76;100473.33;1711566;83;21047;-74
2022/10/06 09:07:12;;;;;;;10.75;5.42;;;;;;;16.14;64.34;100471.19;1711698;83;22232;-74
2022/10/06 09:09:57;;;;;;;7.90;5.30;;;;;;;16.22;64.42;100474.45;1710425;82;21062;-76
2022/10/06 09:12:57;;;;;;;15.03;6.03;;;;;;;16.29;63.49;100476.39;1710788;83;21004;-74
2022/10/06 09:15:54;;;;;;;7.10;4.55;;;;;;;16.33;63.59;100470.69;1649524;87;21103;-73
2022/10/06 09:18:31;;;;;;;6.35;4.62;;;;;;;16.39;63.00;100469.62;1659243;86;22112;-75
2022/10/06 09:21:00;;;;;;;5.97;4.85;;;;;;;16.47;63.08;100472.62;1699268;83;21095;-77
2022/10/06 09:23:46;;;;;;;7.60;5.03;;;;;;;16.53;62.73;100470.19;1710756;83;21031;-73
2022/10/06 09:26:17;;;;;;;8.65;6.05;;;;;;;16.60;62.25;100471.83;1711170;83;21404;-72
2022/10/06 09:28:46;;;;;;;6.15;4.87;;;;;;;16.68;62.17;100483.54;1711140;83;21272;-73
2022/10/06 09:31:27;;;;;;;10.00;5.58;;;;;;;16.75;61.79;100495.77;1710463;83;21079;-76
2022/10/06 09:34:07;;;;;;;7.80;4.55;;;;;;;16.77;61.49;100471.87;1710519;83;21080;-79
2022/10/06 09:36:31;;;;;;;5.03;4.40;;;;;;;16.84;61.43;100475.65;1709459;83;21547;-73
2022/10/06 09:38:58;;;;;;;5.87;4.90;;;;;;;16.89;60.62;100475.66;1706695;84;21606;-77
2022/10/06 09:41:37;;;;;;;7.22;5.08;;;;;;;16.94;60.78;100471.03;1680744;83;21093;-74
2022/10/06 09:44:23;;;;;;;6.22;4.83;;;;;;;17.02;60.99;100483.28;1709234;82;21066;-75
2022/10/06 09:46:51;;;;;;;11.95;5.40;;;;;;;17.08;60.34;100471.29;1720476;83;21816;-71
2022/10/06 09:49:20;;;;;;;9.60;5.80;;;;;;;17.17;60.48;100473.72;1710274;81;21026;-72
2022/10/06 09:52:17;;;;;;;8.50;4.30;;;;;;;17.24;60.51;100473.45;1710857;83;20984;-73
2022/10/06 09:54:44;;;;;;;5.22;4.42;;;;;;;17.32;59.48;100487.30;1710428;83;21047;-74
2022/10/06 09:57:24;;;;;;;7.90;3.90;;;;;;;17.41;59.25;100483.47;1706429;83;21113;-78
2022/10/06 09:59:51;;;;;;;9.08;4.33;;;;;;;17.46;59.17;100473.94;1707457;83;21948;-73
2022/10/06 10:02:35;;;;;;;7.08;4.97;;;;;;;17.55;59.26;100473.67;1710797;83;21040;-74
2022/10/06 10:05:18;;;;;;;11.30;4.45;;;;;;;17.61;58.57;100483.45;1711322;83;21091;-72
2022/10/06 10:07:46;;;;;;;11.60;5.55;;;;;;;17.68;58.23;100485.34;1711584;83;21062;-74
2022/10/06 10:10:22;;;;;;;6.83;4.20;;;;;;;17.74;58.11;100466.56;1694860;82;20987;-74
2022/10/06 10:12:55;;;;;;;6.55;4.00;;;;;;;17.80;57.31;100482.30;1711822;82;21118;-74
2022/10/06 10:15:39;;;;;;;7.60;4.17;;;;;;;17.86;56.97;100478.47;1716264;81;21077;-79
2022/10/06 10:18:07;;;;;;;6.08;4.03;;;;;;;17.91;57.21;100477.09;1703483;82;21532;-79
2022/10/06 10:20:38;;;;;;;11.48;4.30;;;;;;;17.98;57.36;100467.27;1703155;83;21020;-82
2022/10/06 10:23:33;;;;;;;4.33;3.22;;;;;;;18.06;57.21;100466.13;1711376;83;21085;-73
2022/10/06 10:26:20;;;;;;;8.77;4.00;;;;;;;18.18;56.47;100467.14;1735079;82;21164;-71
2022/10/06 10:29:20;;;;;;;6.72;3.95;;;;;;;18.24;55.65;100465.48;1734792;82;21013;-74
2022/10/06 10:32:11;;;;;;;7.20;3.70;;;;;;;18.29;55.04;100473.63;1703747;82;21041;-73
2022/10/06 10:35:01;;;;;;;5.28;3.72;;;;;;;18.35;54.73;100465.42;1714940;82;21072;-72
2022/10/06 10:37:43;;;;;;;5.08;3.80;;;;;;;18.42;54.25;100469.99;1737276;82;21222;-78
2022/10/06 10:40:32;;;;;;;7.45;4.08;;;;;;;18.47;53.62;100462.60;1715933;82;21122;-74
2022/10/06 10:43:14;;;;;;;4.70;3.50;;;;;;;18.53;54.01;100462.88;1722033;83;20923;-73
2022/10/06 10:45:46;;;;;;;4.78;3.20;;;;;;;18.63;53.90;100460.08;1721785;81;21523;-74
2022/10/06 10:48:18;;;;;;;7.47;4.25;;;;;;;18.73;53.86;100466.00;1721573;83;21106;-72
2022/10/06 10:51:06;;;;;;;4.83;3.30;;;;;;;18.84;53.17;100447.66;1721526;82;21099;-71
2022/10/06 10:54:09;;;;;;;4.20;3.80;;;;;;;18.92;52.69;100447.84;1656515;83;21587;-72
2022/10/06 10:56:36;;;;;;;7.65;3.80;;;;;;;18.99;51.85;100459.21;1709861;83;21037;-74
2022/10/06 10:59:26;;;;;;;3.60;3.17;;;;;;;19.04;51.20;100443.38;1710721;83;21027;-74
2022/10/06 11:02:03;;;;;;;5.28;3.90;;;;;;;19.08;51.07;100444.44;1710910;83;21266;-71
2022/10/06 11:04:30;;;;;;;6.08;3.83;;;;;;;19.13;51.33;100446.56;1712050;83;21055;-75
2022/10/06 11:07:52;;;;;;;6.92;3.87;;;;;;;19.25;51.24;100442.61;1712114;83;21602;-73
2022/10/06 11:10:27;;;;;;;3.75;3.30;;;;;;;19.34;50.63;100466.24;1711724;83;21579;-70
2022/10/06 11:13:22;;;;;;;6.65;3.40;;;;;;;19.46;50.66;100446.24;1685941;83;21157;-72
2022/10/06 11:16:16;;;;;;;4.42;3.37;;;;;;;19.53;50.53;100441.78;1683468;85;21068;-73
2022/10/06 11:19:05;;;;;;;10.60;3.62;;;;;;;19.61;50.64;100441.16;1683405;83;22303;-70
2022/10/06 11:21:53;;;;;;;4.85;3.37;;;;;;;19.73;50.86;100432.54;1683350;85;21800;-74
2022/10/06 11:24:51;;;;;;;3.72;3.30;;;;;;;19.85;49.99;100437.05;1722618;82;21095;-72
2022/10/06 11:27:54;;;;;;;5.47;3.47;;;;;;;19.93;49.58;100435.83;1736608;82;21008;-70
2022/10/06 11:30:25;;;;;;;6.95;3.65;;;;;;;20.01;49.42;100432.98;1641631;83;21120;-70
2022/10/06 11:33:15;;;;;;;7.30;5.22;;;;;;;20.07;49.14;100429.63;1711891;83;21081;-69
2022/10/06 11:35:43;;;;;;;5.85;3.60;;;;;;;20.11;48.58;100438.86;1711934;83;21164;-73
2022/10/06 11:38:26;;;;;;;4.72;3.35;;;;;;;20.10;48.23;100423.02;1721668;83;21025;-70
2022/10/06 11:41:16;;;;;;;5.17;3.35;;;;;;;20.11;48.40;100430.66;1721898;82;21028;-74
2022/10/06 11:44:17;;;;;;;3.52;3.02;;;;;;;20.11;48.77;100416.45;1721225;83;21067;-70
2022/10/06 11:46:56;;;;;;;5.20;3.20;;;;;;;20.18;48.58;100421.01;1712523;83;21079;-72
2022/10/06 11:49:38;;;;;;;6.35;3.70;;;;;;;20.25;48.56;100427.45;1712674;83;21967;-71
2022/10/06 11:52:13;;;;;;;6.85;4.05;;;;;;;20.29;48.24;100426.56;1708364;83;20995;-71
2022/10/06 11:54:51;;;;;;;10.53;3.75;;;;;;;20.34;48.14;100422.97;1706267;83;21048;-72
2022/10/06 11:57:30;;;;;;;11.78;4.15;;;;;;;20.41;48.32;100419.33;1711128;83;21076;-73